Monday, May 30, 2016
22:12 UTC
  |  Log In   |  Register Free
Airport Search:

Caruthersville Memorial Airport
(M05)

Caruthersville Memorial Airport Diagram
No Airport Diagram Available

FAA data valid effective Mar 31 2016 - May 26 2016 (unless otherwise noted).

 
 
 
 
 
 
 
 
 
 
 
 
 
 
Current Aviation Weather for M05

Weather Summary


Current weather conditions are not available for M05 - The nearest NOAA weather station is at HKA, (15.6 nm SW from M05)

The most recent METAR observation for M05 was updated at: 21:55 UTC
METAR for M05 is not available. Closest METAR is for KHKA 15.6 nm NE
KHKA  (15.6 nm NE)   (most recent observation was updated at 30:21 UTC)
302153Z AUTO 15006KT 10SM CLR 31/15 A2997 RMK AO2 SLP147 T03110150 $

KDYR  (16.6 nm NW)   (most recent observation was updated at 30:21 UTC)
302155Z AUTO 06006KT 10SM CLR 30/15 A2996 RMK AO1

TAF for M05 is not available.
GlobalAir.com is loading additional information.
 Current Weather at HKA
88.0 F° (31.1 C°)

Southeast winds at 4.6 mph
Pressure:
29.99 in
Humidity:
39%
Wind:
Southeast at 4.6 mph
Dew Point:
60.1 F° (15.6 C°)
Visibility:
10.00 mi
M05 NOAA Radar




Find All Airport Services Find A Hotel Find A Rental Car Find A Golf Course Find A Restaurant $100 Hamburger



Airport Weather Forecast for M05

Translated METAR for KHKA (2153 UTC)
METAR:
KHKA 302153Z AUTO 15006KT 10SM CLR 31/15 A2997 RMK AO2 SLP147 T03110150 $
Conditions at:
KHKA (Blytheville Muni, AR) observed 2153 UTC 30 May 2016
Temperature:
31°C (87.8°F)
Dewpoint:
15°C (59°F) [RH = 37.9]
Pressure:
29.97 inches Hg (1014.9 mb)
pressure at sea level is 147 in Hg
Winds:
from the SSE (150 degrees) at 6.9 mph (6 knots: 3.1 m/s)
Visibility:
10 mile(s)
Ceiling:
at least 12,000 feet AGL
Clouds:
Clear below 12,000 feet AGL
Remarks:
site is un-manned
SOME DATA ABOVE MAY BE INACCURATE!!!
"$" is an indication the sensor requires maintenance
site is automated and HAS a precipitation sensor

Translated TAF for TAF for M05 is not available. Refer to local area forecast.
FBO's on the Field
FBO Company Facility Photos Services Transportation Aviation Fuel Prices: Prices include tax
Catering Weather Repair Courtesy Rental Type 100LL JetA JetA+ MOGAS 8087
 
Add another FBO Facility Photos Catering Weather Repair Courtesy Rental Type 100LL JetA JetA+ MOGAS 8087
Services Transportation Aviation Fuel Prices: Prices include tax
There are no FBO's currently reporting fuel at M05. List your FBO now


model-print
model-print
model-print
model-print